sensor_id;sensor_type;location;lat;lon;timestamp;P1;durP1;ratioP1;P2;durP2;ratioP2
18606;SDS011;9433;42.678;23.360;2022-07-29T00:01:50;6.23;;;5.67;;
18606;SDS011;9433;42.678;23.360;2022-07-29T00:04:17;6.77;;;6.10;;
18606;SDS011;9433;42.678;23.360;2022-07-29T00:06:44;7.87;;;6.27;;
18606;SDS011;9433;42.678;23.360;2022-07-29T00:09:11;6.67;;;5.90;;
18606;SDS011;9433;42.678;23.360;2022-07-29T00:11:37;6.27;;;5.67;;
18606;SDS011;9433;42.678;23.360;2022-07-29T00:14:04;6.83;;;6.17;;
18606;SDS011;9433;42.678;23.360;2022-07-29T00:16:31;6.17;;;5.53;;
18606;SDS011;9433;42.678;23.360;2022-07-29T00:18:59;6.50;;;5.70;;
18606;SDS011;9433;42.678;23.360;2022-07-29T00:21:26;6.47;;;5.77;;
18606;SDS011;9433;42.678;23.360;2022-07-29T00:23:53;5.37;;;4.80;;
18606;SDS011;9433;42.678;23.360;2022-07-29T00:26:20;6.03;;;5.27;;
18606;SDS011;9433;42.678;23.360;2022-07-29T00:28:46;6.20;;;5.60;;
18606;SDS011;9433;42.678;23.360;2022-07-29T00:31:13;6.43;;;5.43;;
18606;SDS011;9433;42.678;23.360;2022-07-29T00:33:40;6.30;;;5.33;;
18606;SDS011;9433;42.678;23.360;2022-07-29T00:36:08;5.80;;;5.30;;
18606;SDS011;9433;42.678;23.360;2022-07-29T00:38:34;6.57;;;5.63;;
18606;SDS011;9433;42.678;23.360;2022-07-29T00:41:01;6.83;;;5.77;;
18606;SDS011;9433;42.678;23.360;2022-07-29T00:43:27;6.80;;;6.10;;
18606;SDS011;9433;42.678;23.360;2022-07-29T00:45:54;6.70;;;5.70;;
18606;SDS011;9433;42.678;23.360;2022-07-29T00:48:21;5.97;;;5.37;;
18606;SDS011;9433;42.678;23.360;2022-07-29T00:50:48;8.80;;;5.90;;
18606;SDS011;9433;42.678;23.360;2022-07-29T00:53:16;5.97;;;5.17;;
18606;SDS011;9433;42.678;23.360;2022-07-29T00:55:44;7.20;;;5.60;;
18606;SDS011;9433;42.678;23.360;2022-07-29T00:58:12;5.73;;;5.23;;
18606;SDS011;9433;42.678;23.360;2022-07-29T01:00:39;7.57;;;6.03;;
18606;SDS011;9433;42.678;23.360;2022-07-29T01:03:06;9.37;;;6.30;;
18606;SDS011;9433;42.678;23.360;2022-07-29T01:05:33;7.43;;;6.50;;
18606;SDS011;9433;42.678;23.360;2022-07-29T01:08:01;7.47;;;6.10;;
18606;SDS011;9433;42.678;23.360;2022-07-29T01:10:30;7.20;;;6.37;;
18606;SDS011;9433;42.678;23.360;2022-07-29T01:12:58;12.13;;;7.90;;
18606;SDS011;9433;42.678;23.360;2022-07-29T01:15:27;7.00;;;6.30;;
18606;SDS011;9433;42.678;23.360;2022-07-29T01:17:57;9.23;;;7.70;;
18606;SDS011;9433;42.678;23.360;2022-07-29T01:20:30;8.73;;;7.83;;
18606;SDS011;9433;42.678;23.360;2022-07-29T01:23:11;7.93;;;7.07;;
18606;SDS011;9433;42.678;23.360;2022-07-29T01:26:07;8.50;;;7.57;;
18606;SDS011;9433;42.678;23.360;2022-07-29T01:28:54;9.47;;;7.73;;
18606;SDS011;9433;42.678;23.360;2022-07-29T01:31:28;11.60;;;8.63;;
18606;SDS011;9433;42.678;23.360;2022-07-29T01:34:01;10.23;;;8.87;;
18606;SDS011;9433;42.678;23.360;2022-07-29T01:36:31;8.90;;;7.83;;
18606;SDS011;9433;42.678;23.360;2022-07-29T01:39:05;12.17;;;8.63;;
18606;SDS011;9433;42.678;23.360;2022-07-29T01:41:35;15.10;;;8.73;;
18606;SDS011;9433;42.678;23.360;2022-07-29T01:44:10;9.90;;;8.10;;
18606;SDS011;9433;42.678;23.360;2022-07-29T01:46:41;9.80;;;8.13;;
18606;SDS011;9433;42.678;23.360;2022-07-29T01:49:14;10.37;;;8.87;;
18606;SDS011;9433;42.678;23.360;2022-07-29T01:51:45;10.70;;;8.97;;
18606;SDS011;9433;42.678;23.360;2022-07-29T01:54:17;12.27;;;9.37;;
18606;SDS011;9433;42.678;23.360;2022-07-29T01:56:48;11.97;;;8.17;;
18606;SDS011;9433;42.678;23.360;2022-07-29T01:59:19;13.90;;;9.03;;
18606;SDS011;9433;42.678;23.360;2022-07-29T02:01:48;11.37;;;8.37;;
18606;SDS011;9433;42.678;23.360;2022-07-29T02:04:18;10.60;;;8.23;;
18606;SDS011;9433;42.678;23.360;2022-07-29T02:06:46;9.33;;;8.37;;
18606;SDS011;9433;42.678;23.360;2022-07-29T02:09:15;9.27;;;8.30;;
18606;SDS011;9433;42.678;23.360;2022-07-29T02:11:45;12.20;;;8.67;;
18606;SDS011;9433;42.678;23.360;2022-07-29T02:14:15;10.90;;;8.43;;
18606;SDS011;9433;42.678;23.360;2022-07-29T02:16:46;9.13;;;7.77;;
18606;SDS011;9433;42.678;23.360;2022-07-29T02:19:15;11.67;;;8.80;;
18606;SDS011;9433;42.678;23.360;2022-07-29T02:21:45;10.57;;;8.67;;
18606;SDS011;9433;42.678;23.360;2022-07-29T02:24:13;11.20;;;8.73;;
18606;SDS011;9433;42.678;23.360;2022-07-29T02:26:42;10.13;;;8.33;;
18606;SDS011;9433;42.678;23.360;2022-07-29T02:29:10;9.80;;;8.33;;
18606;SDS011;9433;42.678;23.360;2022-07-29T02:31:40;9.20;;;8.13;;
18606;SDS011;9433;42.678;23.360;2022-07-29T02:34:09;10.40;;;8.83;;
18606;SDS011;9433;42.678;23.360;2022-07-29T02:36:37;9.33;;;7.80;;
18606;SDS011;9433;42.678;23.360;2022-07-29T02:39:05;9.50;;;7.60;;
18606;SDS011;9433;42.678;23.360;2022-07-29T02:41:38;9.40;;;8.10;;
18606;SDS011;9433;42.678;23.360;2022-07-29T02:44:10;9.70;;;8.07;;
18606;SDS011;9433;42.678;23.360;2022-07-29T02:46:41;12.17;;;8.67;;
18606;SDS011;9433;42.678;23.360;2022-07-29T02:49:13;10.47;;;7.57;;
18606;SDS011;9433;42.678;23.360;2022-07-29T02:51:43;8.70;;;7.37;;
18606;SDS011;9433;42.678;23.360;2022-07-29T02:54:15;8.80;;;6.90;;
18606;SDS011;9433;42.678;23.360;2022-07-29T02:56:48;6.43;;;5.70;;
18606;SDS011;9433;42.678;23.360;2022-07-29T02:59:21;6.93;;;5.50;;
18606;SDS011;9433;42.678;23.360;2022-07-29T03:01:54;6.53;;;5.37;;
18606;SDS011;9433;42.678;23.360;2022-07-29T03:04:24;6.33;;;5.67;;
18606;SDS011;9433;42.678;23.360;2022-07-29T03:06:53;8.20;;;5.97;;
18606;SDS011;9433;42.678;23.360;2022-07-29T03:09:20;7.80;;;5.93;;
18606;SDS011;9433;42.678;23.360;2022-07-29T03:11:49;8.07;;;5.87;;
18606;SDS011;9433;42.678;23.360;2022-07-29T03:14:16;8.27;;;7.10;;
18606;SDS011;9433;42.678;23.360;2022-07-29T03:16:44;7.67;;;6.90;;
18606;SDS011;9433;42.678;23.360;2022-07-29T03:19:13;9.70;;;7.40;;
18606;SDS011;9433;42.678;23.360;2022-07-29T03:21:40;8.60;;;7.70;;
18606;SDS011;9433;42.678;23.360;2022-07-29T03:24:07;8.50;;;7.53;;
18606;SDS011;9433;42.678;23.360;2022-07-29T03:26:34;9.57;;;7.20;;
18606;SDS011;9433;42.678;23.360;2022-07-29T03:29:00;10.57;;;8.47;;
18606;SDS011;9433;42.678;23.360;2022-07-29T03:31:27;9.83;;;7.87;;
18606;SDS011;9433;42.678;23.360;2022-07-29T03:33:54;10.10;;;7.73;;
18606;SDS011;9433;42.678;23.360;2022-07-29T03:36:22;10.93;;;8.27;;
18606;SDS011;9433;42.678;23.360;2022-07-29T03:38:49;9.40;;;8.23;;
18606;SDS011;9433;42.678;23.360;2022-07-29T03:41:17;10.00;;;8.63;;
18606;SDS011;9433;42.678;23.360;2022-07-29T03:43:45;9.27;;;8.03;;
18606;SDS011;9433;42.678;23.360;2022-07-29T03:46:14;9.73;;;8.07;;
18606;SDS011;9433;42.678;23.360;2022-07-29T03:48:46;8.93;;;7.60;;
18606;SDS011;9433;42.678;23.360;2022-07-29T03:51:14;9.97;;;8.20;;
18606;SDS011;9433;42.678;23.360;2022-07-29T03:53:43;8.20;;;7.20;;
18606;SDS011;9433;42.678;23.360;2022-07-29T03:56:10;10.63;;;7.47;;
18606;SDS011;9433;42.678;23.360;2022-07-29T03:58:41;10.33;;;7.67;;
18606;SDS011;9433;42.678;23.360;2022-07-29T04:01:08;10.50;;;8.00;;
18606;SDS011;9433;42.678;23.360;2022-07-29T04:03:35;9.90;;;7.90;;
18606;SDS011;9433;42.678;23.360;2022-07-29T04:06:03;10.33;;;8.27;;
18606;SDS011;9433;42.678;23.360;2022-07-29T04:08:31;12.33;;;7.90;;
18606;SDS011;9433;42.678;23.360;2022-07-29T04:11:00;8.90;;;7.20;;
18606;SDS011;9433;42.678;23.360;2022-07-29T04:13:27;13.00;;;8.50;;
18606;SDS011;9433;42.678;23.360;2022-07-29T04:15:54;8.63;;;6.97;;
18606;SDS011;9433;42.678;23.360;2022-07-29T04:18:21;6.93;;;6.23;;
18606;SDS011;9433;42.678;23.360;2022-07-29T04:20:48;8.87;;;6.30;;
18606;SDS011;9433;42.678;23.360;2022-07-29T04:23:15;8.37;;;6.07;;
18606;SDS011;9433;42.678;23.360;2022-07-29T04:25:42;6.77;;;6.07;;
18606;SDS011;9433;42.678;23.360;2022-07-29T04:28:10;8.30;;;6.27;;
18606;SDS011;9433;42.678;23.360;2022-07-29T04:30:37;6.97;;;6.27;;
18606;SDS011;9433;42.678;23.360;2022-07-29T04:33:05;6.33;;;5.73;;
18606;SDS011;9433;42.678;23.360;2022-07-29T04:35:34;41.57;;;21.23;;
18606;SDS011;9433;42.678;23.360;2022-07-29T04:38:02;9.57;;;7.50;;
18606;SDS011;9433;42.678;23.360;2022-07-29T04:40:29;10.03;;;6.37;;
18606;SDS011;9433;42.678;23.360;2022-07-29T04:42:58;6.97;;;6.03;;
18606;SDS011;9433;42.678;23.360;2022-07-29T04:45:26;8.83;;;6.10;;
18606;SDS011;9433;42.678;23.360;2022-07-29T04:47:53;8.13;;;6.40;;
18606;SDS011;9433;42.678;23.360;2022-07-29T04:50:20;6.93;;;6.10;;
18606;SDS011;9433;42.678;23.360;2022-07-29T04:52:47;7.87;;;6.57;;
18606;SDS011;9433;42.678;23.360;2022-07-29T04:55:13;8.33;;;5.40;;
18606;SDS011;9433;42.678;23.360;2022-07-29T04:57:40;6.03;;;5.43;;
18606;SDS011;9433;42.678;23.360;2022-07-29T05:00:07;6.70;;;5.90;;
18606;SDS011;9433;42.678;23.360;2022-07-29T05:02:36;7.87;;;5.60;;
18606;SDS011;9433;42.678;23.360;2022-07-29T05:05:03;8.13;;;5.53;;
18606;SDS011;9433;42.678;23.360;2022-07-29T05:07:30;8.40;;;6.20;;
18606;SDS011;9433;42.678;23.360;2022-07-29T05:09:57;7.63;;;6.40;;
18606;SDS011;9433;42.678;23.360;2022-07-29T05:12:24;8.53;;;6.70;;
18606;SDS011;9433;42.678;23.360;2022-07-29T05:14:51;8.20;;;6.37;;
18606;SDS011;9433;42.678;23.360;2022-07-29T05:17:18;8.37;;;6.30;;
18606;SDS011;9433;42.678;23.360;2022-07-29T05:19:46;6.97;;;6.10;;
18606;SDS011;9433;42.678;23.360;2022-07-29T05:22:13;8.37;;;5.53;;
18606;SDS011;9433;42.678;23.360;2022-07-29T05:24:40;8.07;;;6.17;;
18606;SDS011;9433;42.678;23.360;2022-07-29T05:27:06;9.57;;;6.40;;
18606;SDS011;9433;42.678;23.360;2022-07-29T05:29:34;8.83;;;6.60;;
18606;SDS011;9433;42.678;23.360;2022-07-29T05:32:01;9.40;;;6.37;;
18606;SDS011;9433;42.678;23.360;2022-07-29T05:34:28;8.47;;;6.37;;
18606;SDS011;9433;42.678;23.360;2022-07-29T05:36:57;7.23;;;5.97;;
18606;SDS011;9433;42.678;23.360;2022-07-29T05:39:24;6.83;;;5.60;;
18606;SDS011;9433;42.678;23.360;2022-07-29T05:41:51;7.33;;;5.60;;
18606;SDS011;9433;42.678;23.360;2022-07-29T05:44:17;8.43;;;5.77;;
18606;SDS011;9433;42.678;23.360;2022-07-29T05:46:44;8.97;;;5.77;;
18606;SDS011;9433;42.678;23.360;2022-07-29T05:49:11;6.47;;;4.60;;
18606;SDS011;9433;42.678;23.360;2022-07-29T05:51:38;5.70;;;4.90;;
18606;SDS011;9433;42.678;23.360;2022-07-29T05:54:06;5.43;;;4.93;;
18606;SDS011;9433;42.678;23.360;2022-07-29T05:56:35;5.53;;;4.80;;
18606;SDS011;9433;42.678;23.360;2022-07-29T05:59:02;6.77;;;5.33;;
18606;SDS011;9433;42.678;23.360;2022-07-29T06:01:28;7.40;;;5.50;;
18606;SDS011;9433;42.678;23.360;2022-07-29T06:03:56;8.97;;;5.60;;
18606;SDS011;9433;42.678;23.360;2022-07-29T06:06:23;6.30;;;4.63;;
18606;SDS011;9433;42.678;23.360;2022-07-29T06:08:50;5.77;;;4.77;;
18606;SDS011;9433;42.678;23.360;2022-07-29T06:11:18;5.30;;;4.47;;
18606;SDS011;9433;42.678;23.360;2022-07-29T06:13:44;5.27;;;4.70;;
18606;SDS011;9433;42.678;23.360;2022-07-29T06:16:11;5.23;;;4.53;;
18606;SDS011;9433;42.678;23.360;2022-07-29T06:18:38;5.27;;;4.50;;
18606;SDS011;9433;42.678;23.360;2022-07-29T06:21:07;5.63;;;5.13;;
18606;SDS011;9433;42.678;23.360;2022-07-29T06:23:35;5.67;;;4.40;;
18606;SDS011;9433;42.678;23.360;2022-07-29T06:26:03;6.53;;;5.60;;
18606;SDS011;9433;42.678;23.360;2022-07-29T06:28:31;5.53;;;4.70;;
18606;SDS011;9433;42.678;23.360;2022-07-29T06:30:58;7.67;;;4.90;;
18606;SDS011;9433;42.678;23.360;2022-07-29T06:33:25;9.10;;;4.80;;
18606;SDS011;9433;42.678;23.360;2022-07-29T06:35:51;7.03;;;4.33;;
18606;SDS011;9433;42.678;23.360;2022-07-29T06:38:18;5.60;;;4.43;;
18606;SDS011;9433;42.678;23.360;2022-07-29T06:40:45;6.10;;;4.93;;
18606;SDS011;9433;42.678;23.360;2022-07-29T06:43:28;5.03;;;4.53;;
18606;SDS011;9433;42.678;23.360;2022-07-29T06:46:02;5.03;;;4.53;;
18606;SDS011;9433;42.678;23.360;2022-07-29T06:48:30;5.57;;;4.30;;
18606;SDS011;9433;42.678;23.360;2022-07-29T06:50:58;5.63;;;4.37;;
18606;SDS011;9433;42.678;23.360;2022-07-29T06:53:25;5.80;;;4.40;;
18606;SDS011;9433;42.678;23.360;2022-07-29T06:55:52;5.33;;;4.47;;
18606;SDS011;9433;42.678;23.360;2022-07-29T06:58:19;5.00;;;4.50;;
18606;SDS011;9433;42.678;23.360;2022-07-29T07:00:47;4.93;;;4.23;;
18606;SDS011;9433;42.678;23.360;2022-07-29T07:03:14;4.97;;;4.30;;
18606;SDS011;9433;42.678;23.360;2022-07-29T07:05:41;5.47;;;4.20;;
18606;SDS011;9433;42.678;23.360;2022-07-29T07:08:09;4.67;;;4.07;;
18606;SDS011;9433;42.678;23.360;2022-07-29T07:10:36;4.78;;;4.03;;
18606;SDS011;9433;42.678;23.360;2022-07-29T07:13:03;4.00;;;3.57;;
18606;SDS011;9433;42.678;23.360;2022-07-29T07:15:30;4.72;;;4.32;;
18606;SDS011;9433;42.678;23.360;2022-07-29T07:17:59;3.92;;;3.60;;
18606;SDS011;9433;42.678;23.360;2022-07-29T07:20:26;3.70;;;3.40;;
18606;SDS011;9433;42.678;23.360;2022-07-29T07:22:53;4.25;;;3.35;;
18606;SDS011;9433;42.678;23.360;2022-07-29T07:25:19;3.95;;;3.60;;
18606;SDS011;9433;42.678;23.360;2022-07-29T07:27:46;3.97;;;3.58;;
18606;SDS011;9433;42.678;23.360;2022-07-29T07:30:13;4.78;;;3.20;;
18606;SDS011;9433;42.678;23.360;2022-07-29T07:32:40;3.70;;;3.40;;
18606;SDS011;9433;42.678;23.360;2022-07-29T07:35:09;4.65;;;3.42;;
18606;SDS011;9433;42.678;23.360;2022-07-29T07:37:36;3.65;;;3.20;;
18606;SDS011;9433;42.678;23.360;2022-07-29T07:40:05;3.50;;;3.10;;
18606;SDS011;9433;42.678;23.360;2022-07-29T07:42:33;3.95;;;3.65;;
18606;SDS011;9433;42.678;23.360;2022-07-29T07:45:00;3.17;;;2.88;;
18606;SDS011;9433;42.678;23.360;2022-07-29T07:47:27;3.40;;;3.10;;
18606;SDS011;9433;42.678;23.360;2022-07-29T07:49:53;5.93;;;3.45;;
18606;SDS011;9433;42.678;23.360;2022-07-29T07:52:22;3.50;;;3.20;;
18606;SDS011;9433;42.678;23.360;2022-07-29T07:54:48;4.45;;;3.83;;
18606;SDS011;9433;42.678;23.360;2022-07-29T07:57:15;3.55;;;3.25;;
18606;SDS011;9433;42.678;23.360;2022-07-29T07:59:42;3.70;;;3.10;;
18606;SDS011;9433;42.678;23.360;2022-07-29T08:02:09;3.20;;;2.90;;
18606;SDS011;9433;42.678;23.360;2022-07-29T08:04:36;3.60;;;3.10;;
18606;SDS011;9433;42.678;23.360;2022-07-29T08:07:05;3.90;;;3.50;;
18606;SDS011;9433;42.678;23.360;2022-07-29T08:09:34;3.45;;;3.15;;
18606;SDS011;9433;42.678;23.360;2022-07-29T08:12:02;2.97;;;2.50;;
18606;SDS011;9433;42.678;23.360;2022-07-29T08:14:31;5.40;;;3.17;;
18606;SDS011;9433;42.678;23.360;2022-07-29T08:16:58;6.97;;;3.00;;
18606;SDS011;9433;42.678;23.360;2022-07-29T08:19:25;3.17;;;2.88;;
18606;SDS011;9433;42.678;23.360;2022-07-29T08:21:52;3.13;;;2.83;;
18606;SDS011;9433;42.678;23.360;2022-07-29T08:24:19;3.47;;;3.17;;
18606;SDS011;9433;42.678;23.360;2022-07-29T08:27:04;3.22;;;2.92;;
18606;SDS011;9433;42.678;23.360;2022-07-29T08:29:31;2.92;;;2.72;;
18606;SDS011;9433;42.678;23.360;2022-07-29T08:31:58;4.20;;;2.70;;
18606;SDS011;9433;42.678;23.360;2022-07-29T08:34:25;3.00;;;2.67;;
18606;SDS011;9433;42.678;23.360;2022-07-29T08:36:52;3.22;;;2.30;;
18606;SDS011;9433;42.678;23.360;2022-07-29T08:39:18;2.67;;;2.42;;
18606;SDS011;9433;42.678;23.360;2022-07-29T08:41:45;2.67;;;2.47;;
18606;SDS011;9433;42.678;23.360;2022-07-29T08:44:14;3.45;;;2.55;;
18606;SDS011;9433;42.678;23.360;2022-07-29T08:46:42;2.75;;;2.53;;
18606;SDS011;9433;42.678;23.360;2022-07-29T08:49:09;3.83;;;2.80;;
18606;SDS011;9433;42.678;23.360;2022-07-29T08:51:36;2.42;;;2.22;;
18606;SDS011;9433;42.678;23.360;2022-07-29T08:54:05;2.25;;;2.03;;
18606;SDS011;9433;42.678;23.360;2022-07-29T08:56:32;3.15;;;2.85;;
18606;SDS011;9433;42.678;23.360;2022-07-29T08:59:03;2.97;;;2.67;;
18606;SDS011;9433;42.678;23.360;2022-07-29T09:01:32;2.22;;;2.03;;
18606;SDS011;9433;42.678;23.360;2022-07-29T09:04:03;2.60;;;2.40;;
18606;SDS011;9433;42.678;23.360;2022-07-29T09:06:32;2.28;;;2.05;;
18606;SDS011;9433;42.678;23.360;2022-07-29T09:09:03;2.58;;;2.38;;
18606;SDS011;9433;42.678;23.360;2022-07-29T09:11:31;2.80;;;2.53;;
18606;SDS011;9433;42.678;23.360;2022-07-29T09:13:58;2.90;;;2.58;;
18606;SDS011;9433;42.678;23.360;2022-07-29T09:16:25;3.08;;;2.42;;
18606;SDS011;9433;42.678;23.360;2022-07-29T09:18:53;2.80;;;2.50;;
18606;SDS011;9433;42.678;23.360;2022-07-29T09:21:20;3.17;;;2.85;;
18606;SDS011;9433;42.678;23.360;2022-07-29T09:24:05;4.57;;;2.90;;
18606;SDS011;9433;42.678;23.360;2022-07-29T09:26:35;2.72;;;2.20;;
18606;SDS011;9433;42.678;23.360;2022-07-29T09:29:08;3.17;;;2.45;;
18606;SDS011;9433;42.678;23.360;2022-07-29T09:31:38;2.75;;;2.55;;
18606;SDS011;9433;42.678;23.360;2022-07-29T09:34:07;3.47;;;2.50;;
18606;SDS011;9433;42.678;23.360;2022-07-29T09:36:39;6.03;;;3.20;;
18606;SDS011;9433;42.678;23.360;2022-07-29T09:39:06;3.10;;;2.80;;
18606;SDS011;9433;42.678;23.360;2022-07-29T09:41:43;2.95;;;2.60;;
18606;SDS011;9433;42.678;23.360;2022-07-29T09:44:11;3.00;;;2.72;;
18606;SDS011;9433;42.678;23.360;2022-07-29T09:46:39;3.03;;;2.72;;
18606;SDS011;9433;42.678;23.360;2022-07-29T09:49:09;3.30;;;2.50;;
18606;SDS011;9433;42.678;23.360;2022-07-29T09:51:37;3.00;;;2.40;;
18606;SDS011;9433;42.678;23.360;2022-07-29T09:56:50;6.60;;;2.63;;
18606;SDS011;9433;42.678;23.360;2022-07-29T09:59:18;3.28;;;2.78;;
18606;SDS011;9433;42.678;23.360;2022-07-29T10:01:47;2.83;;;2.63;;
18606;SDS011;9433;42.678;23.360;2022-07-29T10:04:16;3.45;;;3.00;;
18606;SDS011;9433;42.678;23.360;2022-07-29T10:09:30;4.00;;;2.53;;
18606;SDS011;9433;42.678;23.360;2022-07-29T10:12:04;2.33;;;2.13;;
18606;SDS011;9433;42.678;23.360;2022-07-29T10:14:33;2.35;;;2.15;;
18606;SDS011;9433;42.678;23.360;2022-07-29T10:17:00;2.60;;;2.40;;
18606;SDS011;9433;42.678;23.360;2022-07-29T10:19:29;3.53;;;2.13;;
18606;SDS011;9433;42.678;23.360;2022-07-29T10:21:57;2.85;;;2.60;;
18606;SDS011;9433;42.678;23.360;2022-07-29T10:24:24;2.42;;;2.22;;
18606;SDS011;9433;42.678;23.360;2022-07-29T10:26:53;2.40;;;2.20;;
18606;SDS011;9433;42.678;23.360;2022-07-29T10:29:20;3.13;;;2.40;;
18606;SDS011;9433;42.678;23.360;2022-07-29T10:31:49;2.45;;;2.25;;
18606;SDS011;9433;42.678;23.360;2022-07-29T10:34:27;3.17;;;2.15;;
18606;SDS011;9433;42.678;23.360;2022-07-29T10:37:12;2.30;;;2.10;;
18606;SDS011;9433;42.678;23.360;2022-07-29T10:39:49;2.08;;;1.83;;
18606;SDS011;9433;42.678;23.360;2022-07-29T10:42:24;2.65;;;2.35;;
18606;SDS011;9433;42.678;23.360;2022-07-29T10:44:54;2.47;;;2.28;;
18606;SDS011;9433;42.678;23.360;2022-07-29T10:47:22;2.63;;;2.33;;
18606;SDS011;9433;42.678;23.360;2022-07-29T10:49:57;2.38;;;2.17;;
18606;SDS011;9433;42.678;23.360;2022-07-29T10:52:31;2.88;;;2.60;;
18606;SDS011;9433;42.678;23.360;2022-07-29T10:55:32;2.90;;;2.70;;
18606;SDS011;9433;42.678;23.360;2022-07-29T10:58:11;3.25;;;2.30;;
18606;SDS011;9433;42.678;23.360;2022-07-29T11:00:39;2.55;;;2.10;;
18606;SDS011;9433;42.678;23.360;2022-07-29T11:03:06;3.85;;;2.83;;
18606;SDS011;9433;42.678;23.360;2022-07-29T11:08:20;3.80;;;2.47;;
18606;SDS011;9433;42.678;23.360;2022-07-29T11:10:50;2.60;;;2.40;;
18606;SDS011;9433;42.678;23.360;2022-07-29T11:16:17;2.58;;;2.38;;
18606;SDS011;9433;42.678;23.360;2022-07-29T11:21:49;2.92;;;2.65;;
18606;SDS011;9433;42.678;23.360;2022-07-29T11:24:17;3.00;;;2.67;;
18606;SDS011;9433;42.678;23.360;2022-07-29T11:29:34;2.88;;;2.60;;
18606;SDS011;9433;42.678;23.360;2022-07-29T11:32:10;2.75;;;2.53;;
18606;SDS011;9433;42.678;23.360;2022-07-29T11:34:39;3.28;;;2.70;;
18606;SDS011;9433;42.678;23.360;2022-07-29T11:37:18;3.03;;;2.72;;
18606;SDS011;9433;42.678;23.360;2022-07-29T11:39:47;2.65;;;2.45;;
18606;SDS011;9433;42.678;23.360;2022-07-29T11:42:42;2.50;;;2.30;;
18606;SDS011;9433;42.678;23.360;2022-07-29T11:45:10;3.38;;;3.10;;
18606;SDS011;9433;42.678;23.360;2022-07-29T11:47:40;3.42;;;3.10;;
18606;SDS011;9433;42.678;23.360;2022-07-29T11:50:13;3.20;;;2.90;;
18606;SDS011;9433;42.678;23.360;2022-07-29T11:52:43;3.22;;;2.63;;
18606;SDS011;9433;42.678;23.360;2022-07-29T11:55:12;2.85;;;2.65;;
18606;SDS011;9433;42.678;23.360;2022-07-29T11:57:46;3.47;;;3.17;;
18606;SDS011;9433;42.678;23.360;2022-07-29T12:00:20;3.35;;;2.65;;
18606;SDS011;9433;42.678;23.360;2022-07-29T12:02:52;2.80;;;2.60;;
18606;SDS011;9433;42.678;23.360;2022-07-29T12:05:20;3.25;;;2.95;;
18606;SDS011;9433;42.678;23.360;2022-07-29T12:07:48;5.75;;;3.33;;
18606;SDS011;9433;42.678;23.360;2022-07-29T12:10:15;3.08;;;2.78;;
18606;SDS011;9433;42.678;23.360;2022-07-29T12:12:42;2.97;;;2.78;;
18606;SDS011;9433;42.678;23.360;2022-07-29T12:15:18;2.97;;;2.70;;
18606;SDS011;9433;42.678;23.360;2022-07-29T12:17:46;2.92;;;2.72;;
18606;SDS011;9433;42.678;23.360;2022-07-29T12:20:13;3.28;;;2.97;;
18606;SDS011;9433;42.678;23.360;2022-07-29T12:22:49;2.78;;;2.58;;
18606;SDS011;9433;42.678;23.360;2022-07-29T12:25:16;3.15;;;2.85;;
18606;SDS011;9433;42.678;23.360;2022-07-29T12:27:43;3.35;;;3.05;;
18606;SDS011;9433;42.678;23.360;2022-07-29T12:30:11;3.60;;;3.30;;
18606;SDS011;9433;42.678;23.360;2022-07-29T12:32:41;3.13;;;2.78;;
18606;SDS011;9433;42.678;23.360;2022-07-29T12:35:11;4.07;;;3.67;;
18606;SDS011;9433;42.678;23.360;2022-07-29T12:37:41;3.50;;;3.20;;
18606;SDS011;9433;42.678;23.360;2022-07-29T12:40:12;4.22;;;3.83;;
18606;SDS011;9433;42.678;23.360;2022-07-29T12:42:41;3.95;;;3.20;;
18606;SDS011;9433;42.678;23.360;2022-07-29T12:45:34;4.30;;;3.50;;
18606;SDS011;9433;42.678;23.360;2022-07-29T12:48:01;4.55;;;4.10;;
18606;SDS011;9433;42.678;23.360;2022-07-29T12:50:28;4.85;;;3.90;;
18606;SDS011;9433;42.678;23.360;2022-07-29T12:53:07;3.97;;;3.58;;
18606;SDS011;9433;42.678;23.360;2022-07-29T12:55:38;3.67;;;3.38;;
18606;SDS011;9433;42.678;23.360;2022-07-29T12:58:10;3.80;;;3.50;;
18606;SDS011;9433;42.678;23.360;2022-07-29T13:00:38;4.80;;;3.53;;
18606;SDS011;9433;42.678;23.360;2022-07-29T13:03:05;3.72;;;3.42;;
18606;SDS011;9433;42.678;23.360;2022-07-29T13:05:38;3.13;;;2.92;;
18606;SDS011;9433;42.678;23.360;2022-07-29T13:08:10;3.65;;;3.35;;
18606;SDS011;9433;42.678;23.360;2022-07-29T13:10:38;3.80;;;3.50;;
18606;SDS011;9433;42.678;23.360;2022-07-29T13:13:05;3.80;;;3.50;;
18606;SDS011;9433;42.678;23.360;2022-07-29T13:15:34;3.50;;;3.20;;
18606;SDS011;9433;42.678;23.360;2022-07-29T13:18:01;4.07;;;3.65;;
18606;SDS011;9433;42.678;23.360;2022-07-29T13:20:29;3.90;;;3.60;;
18606;SDS011;9433;42.678;23.360;2022-07-29T13:22:56;3.97;;;3.60;;
18606;SDS011;9433;42.678;23.360;2022-07-29T13:25:24;3.70;;;3.40;;
18606;SDS011;9433;42.678;23.360;2022-07-29T13:27:52;3.70;;;3.40;;
18606;SDS011;9433;42.678;23.360;2022-07-29T13:30:20;3.45;;;3.15;;
18606;SDS011;9433;42.678;23.360;2022-07-29T13:32:49;3.42;;;3.15;;
18606;SDS011;9433;42.678;23.360;2022-07-29T13:35:17;3.38;;;3.10;;
18606;SDS011;9433;42.678;23.360;2022-07-29T13:37:45;2.95;;;2.67;;
18606;SDS011;9433;42.678;23.360;2022-07-29T13:40:12;3.95;;;2.83;;
18606;SDS011;9433;42.678;23.360;2022-07-29T13:42:40;3.78;;;3.38;;
18606;SDS011;9433;42.678;23.360;2022-07-29T13:45:07;3.40;;;3.10;;
18606;SDS011;9433;42.678;23.360;2022-07-29T13:47:36;3.65;;;3.25;;
18606;SDS011;9433;42.678;23.360;2022-07-29T13:50:05;3.80;;;3.33;;
18606;SDS011;9433;42.678;23.360;2022-07-29T13:52:33;3.58;;;3.28;;
18606;SDS011;9433;42.678;23.360;2022-07-29T13:55:00;3.90;;;3.58;;
18606;SDS011;9433;42.678;23.360;2022-07-29T13:57:27;4.07;;;3.00;;
18606;SDS011;9433;42.678;23.360;2022-07-29T13:59:54;3.55;;;3.25;;
18606;SDS011;9433;42.678;23.360;2022-07-29T14:02:21;3.63;;;3.33;;
18606;SDS011;9433;42.678;23.360;2022-07-29T14:04:48;3.67;;;3.38;;
18606;SDS011;9433;42.678;23.360;2022-07-29T14:07:16;4.05;;;3.67;;
18606;SDS011;9433;42.678;23.360;2022-07-29T14:09:43;4.65;;;3.60;;
18606;SDS011;9433;42.678;23.360;2022-07-29T14:12:10;4.13;;;3.47;;
18606;SDS011;9433;42.678;23.360;2022-07-29T14:14:37;4.38;;;4.07;;
18606;SDS011;9433;42.678;23.360;2022-07-29T14:17:03;3.70;;;3.40;;
18606;SDS011;9433;42.678;23.360;2022-07-29T14:19:31;4.18;;;3.83;;
18606;SDS011;9433;42.678;23.360;2022-07-29T14:22:00;4.10;;;3.50;;
18606;SDS011;9433;42.678;23.360;2022-07-29T14:24:30;4.82;;;3.42;;
18606;SDS011;9433;42.678;23.360;2022-07-29T14:26:57;4.20;;;3.80;;
18606;SDS011;9433;42.678;23.360;2022-07-29T14:29:23;4.22;;;3.78;;
18606;SDS011;9433;42.678;23.360;2022-07-29T14:31:50;3.90;;;3.53;;
18606;SDS011;9433;42.678;23.360;2022-07-29T14:34:17;4.15;;;3.63;;
18606;SDS011;9433;42.678;23.360;2022-07-29T14:36:44;3.55;;;3.25;;
18606;SDS011;9433;42.678;23.360;2022-07-29T14:39:11;3.97;;;3.42;;
18606;SDS011;9433;42.678;23.360;2022-07-29T14:41:39;3.50;;;3.20;;
18606;SDS011;9433;42.678;23.360;2022-07-29T14:44:06;3.58;;;3.28;;
18606;SDS011;9433;42.678;23.360;2022-07-29T14:46:33;4.18;;;3.80;;
18606;SDS011;9433;42.678;23.360;2022-07-29T14:49:00;4.07;;;3.78;;
18606;SDS011;9433;42.678;23.360;2022-07-29T14:51:26;4.13;;;3.72;;
18606;SDS011;9433;42.678;23.360;2022-07-29T14:53:53;3.38;;;2.75;;
18606;SDS011;9433;42.678;23.360;2022-07-29T14:56:21;4.63;;;3.85;;
18606;SDS011;9433;42.678;23.360;2022-07-29T14:58:49;3.78;;;3.47;;
18606;SDS011;9433;42.678;23.360;2022-07-29T15:01:16;4.03;;;3.72;;
18606;SDS011;9433;42.678;23.360;2022-07-29T15:03:42;4.63;;;4.13;;
18606;SDS011;9433;42.678;23.360;2022-07-29T15:06:09;4.40;;;4.00;;
18606;SDS011;9433;42.678;23.360;2022-07-29T15:08:36;4.03;;;3.72;;
18606;SDS011;9433;42.678;23.360;2022-07-29T15:11:04;4.40;;;4.00;;
18606;SDS011;9433;42.678;23.360;2022-07-29T15:13:30;4.35;;;3.95;;